Tutti
Tibooburra Airport (Tibooburra, New South Wales) TYB Meteo
|
Tibooburra, New South Wales (TYB / YTIB)
Cielo sereno
Ventoso |
|
15 °C |
There is no TAF data available at TYB or any nearby airports.
Storico METAR TYB recente
| Date | Time (AEST) | Flight Rules | Wind Dir. | Speed | Type | Height AGL (ft) | Visibility | Temp (°C) | Temp (°F) | Dew Point (°C) | Dew Point (°F) | Rel. Humid. | Pressure | Density Altitude | Remarks |
|---|---|---|---|---|---|---|---|---|---|---|---|---|---|---|---|
| 08-mag | 11:00 | n/a | 150° | 14 kt | Missing | 15° | 59° | 5° | 41° | 51% | 1030 mb | 88 ft | |||
| 08-mag | 10:00 | n/a | 150° | 12 kt | Missing | 14° | 57° | 4° | 39° | 51% | 1030 mb | -32 ft | |||
| 08-mag | 09:00 | n/a | 150° | 11 kt | Missing | 12° | 53° | 3° | 37° | 54% | 1030 mb | -272 ft | |||
| 08-mag | 08:00 | n/a | 170° | 7 kt | Missing | 9° | 48° | 2° | 35° | 61% | 1029 mb | -602 ft | |||
| 08-mag | 07:00 | n/a | 170° | 7 kt | Missing | 7° | 44° | 1° | 33° | 66% | 1028 mb | -813 ft | |||
| 08-mag | 06:00 | n/a | 190° | 5 kt | Missing | 7° | 44° | 1° | 33° | 66% | 1028 mb | -813 ft | |||
| 08-mag | 05:00 | n/a | 180° | 5 kt | Missing | 8° | 46° | 1° | 33° | 61% | 1028 mb | -693 ft | |||
| 08-mag | 04:00 | n/a | 150° | 7 kt | Missing | 8° | 46° | 1° | 33° | 61% | 1028 mb | -693 ft | |||
| 08-mag | 03:00 | n/a | 150° | 10 kt | Missing | 9° | 48° | 1° | 33° | 57% | 1027 mb | -543 ft | |||
| 08-mag | 02:00 | n/a | 150° | 12 kt | Missing | 10° | 50° | 0° | 32° | 50% | 1028 mb | -453 ft | |||
| 08-mag | 01:00 | n/a | 160° | 12 kt | Missing | 10° | 50° | 0° | 32° | 50% | 1028 mb | -453 ft | |||
| 08-mag | 00:00 | n/a | 170° | 11 kt | Missing | 10° | 50° | -1° | 30° | 46% | 1028 mb | -453 ft | |||
| 07-mag | 23:00 | n/a | 170° | 8 kt | Missing | 10° | 50° | -1° | 30° | 46% | 1028 mb | -453 ft | |||
| 07-mag | 22:00 | n/a | 160° | 10 kt | Missing | 11° | 51° | -1° | 30° | 43% | 1028 mb | -333 ft | |||
| 07-mag | 21:00 | n/a | 160° | 11 kt | Missing | 12° | 53° | -2° | 28° | 38% | 1028 mb | -213 ft | |||
| 07-mag | 20:00 | n/a | 170° | 8 kt | Missing | 12° | 53° | -1° | 30° | 40% | 1027 mb | -183 ft | |||
| 07-mag | 19:00 | n/a | 170° | 9 kt | Missing | 13° | 55° | -1° | 30° | 38% | 1027 mb | -63 ft | |||
| 07-mag | 18:00 | n/a | 160° | 13 kt | Missing | 15° | 59° | 0° | 32° | 36% | 1026 mb | 206 ft | |||
| 07-mag | 17:00 | n/a | 160° | 16 kt | Missing | 16° | 60° | 1° | 33° | 36% | 1025 mb | 356 ft | |||
| 07-mag | 16:00 | n/a | 170° | 15 kt | Missing | 16° | 60° | 1° | 33° | 36% | 1025 mb | 356 ft | |||
| 07-mag | 15:00 | n/a | 160° | 15 kt | Missing | 16° | 60° | 1° | 33° | 36% | 1025 mb | 356 ft | |||
| 07-mag | 14:00 | n/a | 160° | 16 kt | Missing | 16° | 60° | 1° | 33° | 36% | 1026 mb | 326 ft | |||
| 07-mag | 13:00 | n/a | 160° | 14 kt | Missing | 17° | 62° | 4° | 39° | 42% | 1026 mb | 446 ft | |||
| 07-mag | 12:00 | n/a | 170° | 15 kt | Missing | 16° | 60° | 6° | 42° | 51% | 1027 mb | 297 ft |
Accedi
| Il tuo browser non è supportato. fai l'upgrade del tuo browser |
